Time;durP1;ratioP1;P1;durP2;ratioP2;P2;SDS_P1;SDS_P2;PMS_P1;PMS_P2;Temp;Humidity;BMP_temperature;BMP_pressure;BME280_temperature;BME280_humidity;BME280_pressure;Samples;Min_cycle;Max_cycle;Signal;HPM_P1;HPM_P2
2022/12/21 00:00:13;;;;;;;;;;;;;;;27.55;24.01;101976.81;5075463;28;1075;-16
2022/12/21 00:02:39;;;;;;;;;;;;;;;27.00;24.71;101978.63;5076027;28;1203;-16
2022/12/21 00:05:05;;;;;;;;;;;;;;;27.06;24.84;101969.94;5076356;28;1166;-16
2022/12/21 00:07:31;;;;;;;;;;;;;;;27.48;24.04;101963.06;5062093;28;1023;-16
2022/12/21 00:09:57;;;;;;;;;;;;;;;27.95;23.35;101971.03;5076449;28;1203;-16
2022/12/21 00:12:22;;;;;;;;;;;;;;;27.20;24.15;101967.72;5076321;28;1194;-16
2022/12/21 00:14:47;;;;;;;;;;;;;;;26.99;24.81;101961.56;5075419;28;1906;-16
2022/12/21 00:17:12;;;;;;;;;;;;;;;26.94;25.06;101953.09;5076010;28;1222;-16
2022/12/21 00:19:40;;;;;;;;;;;;;;;27.34;24.46;101959.06;5076447;28;1062;-16
2022/12/21 00:22:05;;;;;;;;;;;;;;;27.84;23.72;101948.66;5075361;28;1044;-16
2022/12/21 00:24:32;;;;;;;;;;;;;;;27.36;24.41;101957.06;5075993;28;1016;-16
2022/12/21 00:26:57;;;;;;;;;;;;;;;27.21;24.41;101962.16;5075311;28;1013;-16
2022/12/21 00:29:22;;;;;;;;;;;;;;;26.90;25.26;101959.78;5075873;28;1139;-16
2022/12/21 00:31:48;;;;;;;;;;;;;;;27.29;24.77;101956.00;5076283;28;993;-16
2022/12/21 00:34:17;;;;;;;;;;;;;;;27.93;23.45;101954.13;5076104;28;1138;-16
2022/12/21 00:36:43;;;;;;;;;;;;;;;27.35;24.25;101944.56;5074650;28;1889;-16
2022/12/21 00:39:08;;;;;;;;;;;;;;;27.23;24.43;101943.09;5080022;28;1111;-16
2022/12/21 00:41:33;;;;;;;;;;;;;;;26.95;24.99;101941.28;5079905;28;1087;-16
2022/12/21 00:43:59;;;;;;;;;;;;;;;27.34;24.31;101940.13;5079083;28;1102;-16
2022/12/21 00:46:29;;;;;;;;;;;;;;;27.91;23.97;101946.16;5079854;28;1050;-16
2022/12/21 00:48:54;;;;;;;;;;;;;;;27.56;24.01;101947.94;5079452;28;1087;-16
2022/12/21 00:51:20;;;;;;;;;;;;;;;27.38;24.67;101940.69;5079597;28;1039;-16
2022/12/21 00:53:46;;;;;;;;;;;;;;;26.96;25.06;101939.44;5079794;28;1040;-16
2022/12/21 00:56:11;;;;;;;;;;;;;;;27.27;24.91;101936.38;5079748;28;1906;-16
2022/12/21 00:58:36;;;;;;;;;;;;;;;27.78;24.18;101937.66;5079216;28;1012;-16
2022/12/21 01:01:06;;;;;;;;;;;;;;;27.59;24.22;101932.22;5079236;28;861;-16
2022/12/21 01:03:31;;;;;;;;;;;;;;;27.72;24.05;101931.88;5079266;28;1050;-16
2022/12/21 01:05:56;;;;;;;;;;;;;;;26.85;25.19;101927.84;5079264;28;1114;-16
2022/12/21 01:08:22;;;;;;;;;;;;;;;27.16;24.78;101931.22;5078739;28;1108;-16
2022/12/21 01:10:47;;;;;;;;;;;;;;;27.61;24.24;101926.69;5079263;28;1114;-16
2022/12/21 01:13:13;;;;;;;;;;;;;;;27.86;24.24;101926.91;5078920;28;1147;-16
2022/12/21 01:15:44;;;;;;;;;;;;;;;27.83;23.77;101927.19;5078923;28;1901;-16
2022/12/21 01:18:10;;;;;;;;;;;;;;;27.39;24.53;101928.88;5078963;28;1067;-16
2022/12/21 01:20:42;;;;;;;;;;;;;;;26.87;25.33;101917.75;5078656;28;1047;-16
2022/12/21 01:23:07;;;;;;;;;;;;;;;27.19;25.27;101918.25;5061166;28;1409;-16
2022/12/21 01:25:33;;;;;;;;;;;;;;;27.58;24.25;101921.59;5078925;28;1034;-16
2022/12/21 01:27:59;;;;;;;;;;;;;;;27.95;23.78;101928.63;5079002;28;1118;-16
2022/12/21 01:30:24;;;;;;;;;;;;;;;27.33;24.93;101926.78;5078765;28;1082;-16
2022/12/21 01:32:50;;;;;;;;;;;;;;;27.05;24.98;101919.63;5078504;28;1558;-16
2022/12/21 01:35:15;;;;;;;;;;;;;;;26.78;25.37;101927.63;5079054;28;2319;-16
2022/12/21 01:37:40;;;;;;;;;;;;;;;27.13;25.25;101922.41;5077730;28;1021;-16
2022/12/21 01:40:06;;;;;;;;;;;;;;;27.67;24.51;101923.34;5078526;28;1127;-16
2022/12/21 01:42:31;;;;;;;;;;;;;;;27.97;23.83;101918.50;5078828;28;1059;-16
2022/12/21 01:45:17;;;;;;;;;;;;;;;27.38;24.81;101908.25;5078510;28;1123;-16
2022/12/21 01:47:43;;;;;;;;;;;;;;;26.97;25.29;101911.44;5078389;28;1280;-16
2022/12/21 01:50:35;;;;;;;;;;;;;;;26.92;25.36;101909.19;5056348;28;843;-16
2022/12/21 01:53:02;;;;;;;;;;;;;;;27.50;24.90;101907.03;5042649;28;1031;-16
2022/12/21 01:55:27;;;;;;;;;;;;;;;27.94;23.91;101894.50;5078537;28;1949;-16
2022/12/21 01:57:53;;;;;;;;;;;;;;;27.32;25.08;101895.38;5078324;28;1087;-16
2022/12/21 02:00:18;;;;;;;;;;;;;;;27.19;25.03;101899.34;5060529;28;1307;-16
2022/12/21 02:02:46;;;;;;;;;;;;;;;26.84;25.78;101903.72;5077987;28;905;-16
2022/12/21 02:05:13;;;;;;;;;;;;;;;27.16;25.35;101888.84;5059990;28;1103;-16
2022/12/21 02:07:38;;;;;;;;;;;;;;;27.62;24.59;101885.13;5078483;28;1162;-16
2022/12/21 02:10:04;;;;;;;;;;;;;;;28.06;23.69;101873.41;5077921;28;1082;-16
2022/12/21 02:12:30;;;;;;;;;;;;;;;27.96;23.56;101864.56;5077519;28;1091;-16
2022/12/21 02:14:55;;;;;;;;;;;;;;;27.96;23.85;101870.00;5054133;28;1967;-16
2022/12/21 02:17:26;;;;;;;;;;;;;;;28.40;23.50;101869.00;5060424;28;1507;-16
2022/12/21 02:19:51;;;;;;;;;;;;;;;27.51;24.85;101861.91;5077656;28;1083;-17
2022/12/21 02:22:19;;;;;;;;;;;;;;;27.32;25.23;101858.41;5078039;28;1067;-16
2022/12/21 02:25:01;;;;;;;;;;;;;;;26.71;25.82;101853.63;5059855;28;1077;-16
2022/12/21 02:27:27;;;;;;;;;;;;;;;27.06;25.25;101855.69;5059555;28;1094;-16
2022/12/21 02:30:10;;;;;;;;;;;;;;;27.66;24.97;101850.53;5077679;28;1138;-16
2022/12/21 02:32:45;;;;;;;;;;;;;;;27.98;23.68;101851.72;5078033;28;1158;-16
2022/12/21 02:35:25;;;;;;;;;;;;;;;27.05;25.58;101853.97;5065130;28;1964;-16
2022/12/21 02:38:01;;;;;;;;;;;;;;;26.88;25.85;101859.19;5077107;28;1162;-16
2022/12/21 02:40:33;;;;;;;;;;;;;;;27.02;25.70;101856.00;5059667;28;1059;-16
2022/12/21 02:45:55;;;;;;;;;;;;;;;27.70;24.46;101851.91;5077355;28;1040;-16
2022/12/21 02:48:26;;;;;;;;;;;;;;;27.56;24.60;101847.94;5059281;28;1047;-17
2022/12/21 02:50:52;;;;;;;;;;;;;;;26.83;26.15;101848.00;5076059;28;948;-16
2022/12/21 02:53:22;;;;;;;;;;;;;;;26.93;25.70;101851.47;5059647;28;1142;-16
2022/12/21 02:55:47;;;;;;;;;;;;;;;27.36;25.45;101859.78;5058984;28;1898;-16
2022/12/21 02:58:14;;;;;;;;;;;;;;;27.70;24.75;101860.88;5076814;28;1150;-16
2022/12/21 03:00:42;;;;;;;;;;;;;;;27.98;24.10;101846.31;5076510;28;1202;-16
2022/12/21 03:06:19;;;;;;;;;;;;;;;26.96;26.15;101848.47;5065985;28;950;-16
2022/12/21 03:08:56;;;;;;;;;;;;;;;27.02;25.70;101842.50;5077021;28;1178;-17
2022/12/21 03:11:23;;;;;;;;;;;;;;;27.46;25.52;101829.13;5059188;28;1132;-16
2022/12/21 03:13:48;;;;;;;;;;;;;;;27.83;24.75;101832.56;5058724;28;1003;-16
2022/12/21 03:16:19;;;;;;;;;;;;;;;27.87;24.48;101828.53;5076811;28;1898;-16
2022/12/21 03:18:48;;;;;;;;;;;;;;;27.45;25.05;101830.97;5076400;28;1151;-16
2022/12/21 03:21:25;;;;;;;;;;;;;;;26.90;25.89;101824.78;5058951;28;989;-16
2022/12/21 03:23:55;;;;;;;;;;;;;;;26.92;26.13;101827.34;5076387;28;1170;-16
2022/12/21 03:26:22;;;;;;;;;;;;;;;27.32;25.67;101820.59;5058688;28;1143;-16
2022/12/21 03:28:48;;;;;;;;;;;;;;;27.67;25.11;101817.94;5076629;28;1103;-16
2022/12/21 03:31:17;;;;;;;;;;;;;;;28.01;24.29;101818.13;5076759;28;1130;-16
2022/12/21 03:33:46;;;;;;;;;;;;;;;27.44;25.25;101834.69;5076710;28;1039;-16
2022/12/21 03:36:38;;;;;;;;;;;;;;;27.27;25.54;101828.31;5058944;28;1898;-16
2022/12/21 03:39:04;;;;;;;;;;;;;;;27.12;25.93;101831.59;5041529;28;1188;-16
2022/12/21 03:41:31;;;;;;;;;;;;;;;27.50;25.36;101823.25;5075894;28;1154;-16
2022/12/21 03:43:56;;;;;;;;;;;;;;;27.85;24.93;101822.44;5058519;28;1525;-16
2022/12/21 03:46:23;;;;;;;;;;;;;;;27.41;25.47;101816.06;5076250;28;1067;-16
2022/12/21 03:48:56;;;;;;;;;;;;;;;27.54;24.91;101810.25;5058012;28;1068;-16
2022/12/21 03:51:34;;;;;;;;;;;;;;;26.71;26.48;101812.31;5058289;28;1070;-16
2022/12/21 03:54:05;;;;;;;;;;;;;;;26.90;26.18;101803.19;5075361;28;1059;-16
2022/12/21 03:56:30;;;;;;;;;;;;;;;27.47;25.39;101801.09;5075973;28;1949;-17
2022/12/21 03:58:56;;;;;;;;;;;;;;;27.75;25.31;101792.81;5076406;28;1253;-16
2022/12/21 04:01:26;;;;;;;;;;;;;;;28.06;24.02;101789.53;5076307;28;1190;-16
2022/12/21 04:03:56;;;;;;;;;;;;;;;27.28;25.56;101786.78;5057708;28;1111;-16
2022/12/21 04:06:23;;;;;;;;;;;;;;;27.04;26.01;101795.56;5076146;28;1068;-16
2022/12/21 04:08:48;;;;;;;;;;;;;;;26.56;25.73;101785.84;5058431;28;1091;-16
2022/12/21 04:13:58;;;;;;;;;;;;;;;26.73;21.54;101791.41;5062681;28;917;-15
2022/12/21 04:16:23;;;;;;;;;;;;;;;26.69;23.10;101796.28;5057879;28;1909;-15
2022/12/21 04:21:32;;;;;;;;;;;;;;;26.34;24.11;101800.66;5075776;28;1197;-16
2022/12/21 04:29:25;;;;;;;;;;;;;;;26.06;24.82;101793.38;5075926;28;1210;-15
2022/12/21 04:31:50;;;;;;;;;;;;;;;25.79;25.13;101782.44;5075762;28;1036;-16
2022/12/21 04:34:15;;;;;;;;;;;;;;;25.61;25.30;101779.66;5062549;28;1131;-16
2022/12/21 04:39:25;;;;;;;;;;;;;;;25.48;25.62;101773.75;5075196;28;1091;-16
2022/12/21 04:41:50;;;;;;;;;;;;;;;25.38;25.73;101771.94;5075808;28;1146;-16
2022/12/21 04:44:15;;;;;;;;;;;;;;;25.24;25.95;101773.25;5076048;28;1213;-16
2022/12/21 04:46:40;;;;;;;;;;;;;;;24.98;22.41;101771.16;5074290;28;2409;-16
2022/12/21 04:49:06;;;;;;;;;;;;;;;24.40;22.26;101772.84;5074944;28;2142;-15
2022/12/21 04:51:31;;;;;;;;;;;;;;;22.62;19.28;101767.38;5074705;28;1946;-15
2022/12/21 04:53:56;;;;;;;;;;;;;;;22.90;19.30;101767.75;5074984;28;1845;-15
2022/12/21 04:56:22;;;;;;;;;;;;;;;24.13;21.11;101772.47;5069856;28;2154;-16
2022/12/21 04:58:47;;;;;;;;;;;;;;;24.74;20.49;101772.41;5069790;28;1933;-15
2022/12/21 05:01:22;;;;;;;;;;;;;;;24.64;20.65;101763.53;5074920;28;2247;-15
2022/12/21 05:03:48;;;;;;;;;;;;;;;24.80;21.55;101769.19;5074561;28;1096;-15
2022/12/21 05:06:13;;;;;;;;;;;;;;;24.52;22.77;101760.97;5074780;28;1087;-16
2022/12/21 05:08:38;;;;;;;;;;;;;;;24.68;22.08;101762.22;5075507;28;1020;-15
2022/12/21 05:11:14;;;;;;;;;;;;;;;24.97;22.35;101768.63;5074926;28;1028;-15
2022/12/21 05:13:39;;;;;;;;;;;;;;;24.57;22.95;101764.06;5070412;28;1127;-16
2022/12/21 05:16:05;;;;;;;;;;;;;;;24.99;23.09;101763.97;5065737;28;1898;-16
2022/12/21 05:18:31;;;;;;;;;;;;;;;24.69;23.81;101755.88;5074644;28;1119;-15
2022/12/21 05:20:56;;;;;;;;;;;;;;;24.81;23.84;101767.31;5074868;28;995;-15
2022/12/21 05:23:21;;;;;;;;;;;;;;;24.94;24.03;101765.22;5076306;28;1133;-16
2022/12/21 05:25:46;;;;;;;;;;;;;;;24.54;24.42;101764.34;5077936;28;1007;-16
2022/12/21 05:28:12;;;;;;;;;;;;;;;24.81;24.49;101765.50;5078094;28;917;-15
2022/12/21 05:30:37;;;;;;;;;;;;;;;24.73;24.46;101761.81;5079380;28;1118;-16
2022/12/21 05:33:02;;;;;;;;;;;;;;;24.67;24.48;101763.22;5078018;28;2549;-15
2022/12/21 05:35:28;;;;;;;;;;;;;;;24.92;24.61;101758.28;5078007;28;1890;-16
2022/12/21 05:38:07;;;;;;;;;;;;;;;24.97;24.70;101753.34;5078577;28;1024;-16
2022/12/21 05:40:49;;;;;;;;;;;;;;;25.15;24.46;101753.44;5076944;28;945;-16
2022/12/21 05:43:14;;;;;;;;;;;;;;;24.76;25.23;101748.06;5077306;28;1074;-16
2022/12/21 05:45:39;;;;;;;;;;;;;;;24.78;25.44;101746.94;5078362;28;983;-16
2022/12/21 05:48:05;;;;;;;;;;;;;;;24.89;25.20;101745.09;5078201;28;1088;-15
2022/12/21 05:50:30;;;;;;;;;;;;;;;24.41;25.99;101743.13;5078304;28;1021;-16
2022/12/21 05:52:55;;;;;;;;;;;;;;;24.96;25.15;101748.09;5077688;28;1024;-15
2022/12/21 05:55:20;;;;;;;;;;;;;;;24.80;25.55;101741.41;5077786;28;1906;-16
2022/12/21 05:57:46;;;;;;;;;;;;;;;24.88;25.71;101733.47;5078372;28;1406;-16
2022/12/21 06:00:11;;;;;;;;;;;;;;;25.14;25.32;101734.75;5077850;28;1099;-16
2022/12/21 06:02:36;;;;;;;;;;;;;;;24.51;26.17;101739.56;5074422;28;2360;-16
2022/12/21 06:05:03;;;;;;;;;;;;;;;24.90;25.71;101730.63;5077952;28;1067;-15
2022/12/21 06:07:29;;;;;;;;;;;;;;;25.75;24.87;101729.84;5078147;28;1194;-16
2022/12/21 06:09:54;;;;;;;;;;;;;;;27.45;22.64;101727.44;5077781;28;1120;-15
2022/12/21 06:12:19;;;;;;;;;;;;;;;27.10;23.06;101733.69;5077573;28;1050;-16
2022/12/21 06:14:45;;;;;;;;;;;;;;;27.24;22.80;101736.81;5077018;28;1054;-16
2022/12/21 06:17:10;;;;;;;;;;;;;;;27.45;22.36;101735.53;5077332;28;1975;-16
2022/12/21 06:19:36;;;;;;;;;;;;;;;27.47;22.69;101741.63;5077826;28;1032;-16
2022/12/21 06:22:01;;;;;;;;;;;;;;;27.80;22.26;101739.09;5077386;28;1138;-16
2022/12/21 06:24:26;;;;;;;;;;;;;;;27.99;21.82;101734.44;5077678;28;1095;-16
2022/12/21 06:26:51;;;;;;;;;;;;;;;28.04;21.96;101737.50;5077048;28;1239;-16
2022/12/21 06:29:17;;;;;;;;;;;;;;;28.01;22.15;101739.69;5077387;28;1086;-16
2022/12/21 06:31:42;;;;;;;;;;;;;;;28.02;22.08;101734.09;5077447;28;1839;-16
2022/12/21 06:34:09;;;;;;;;;;;;;;;27.53;22.40;101734.75;5077274;28;1151;-15
2022/12/21 06:36:35;;;;;;;;;;;;;;;27.22;23.15;101733.41;5077303;28;1882;-15
2022/12/21 06:39:00;;;;;;;;;;;;;;;27.76;22.63;101740.44;5076703;28;1020;-16
2022/12/21 06:41:25;;;;;;;;;;;;;;;27.83;22.62;101740.63;5077918;28;1135;-16
2022/12/21 06:43:51;;;;;;;;;;;;;;;28.11;22.50;101740.38;5076507;28;1173;-16
2022/12/21 06:46:17;;;;;;;;;;;;;;;28.11;22.71;101741.22;5076610;28;1166;-16
2022/12/21 06:48:42;;;;;;;;;;;;;;;27.62;23.37;101745.44;5077111;28;1023;-16
2022/12/21 06:51:11;;;;;;;;;;;;;;;27.68;23.01;101740.38;5079369;28;1101;-16
2022/12/21 06:53:37;;;;;;;;;;;;;;;27.79;23.13;101741.97;5072661;28;1143;-16
2022/12/21 06:56:03;;;;;;;;;;;;;;;27.96;22.90;101745.59;5076821;28;1914;-16
2022/12/21 06:58:28;;;;;;;;;;;;;;;28.24;22.15;101748.84;5072208;28;1204;-16
2022/12/21 07:00:54;;;;;;;;;;;;;;;28.24;22.06;101748.00;5075178;28;1196;-15
2022/12/21 07:03:20;;;;;;;;;;;;;;;28.52;21.76;101763.13;5074245;28;2077;-16
2022/12/21 07:05:45;;;;;;;;;;;;;;;28.32;21.49;101737.19;5070275;28;1374;-15
2022/12/21 07:08:10;;;;;;;;;;;;;;;27.68;22.00;101756.59;5076162;28;1151;-16
2022/12/21 07:10:38;;;;;;;;;;;;;;;27.53;22.83;101750.97;5073059;28;1563;-16
2022/12/21 07:13:04;;;;;;;;;;;;;;;28.61;21.74;101754.00;5076737;28;1238;-16
2022/12/21 07:15:32;;;;;;;;;;;;;;;28.36;21.86;101749.41;5065808;28;1902;-16
2022/12/21 07:17:58;;;;;;;;;;;;;;;27.55;22.25;101746.22;5074479;28;1151;-16
2022/12/21 07:20:23;;;;;;;;;;;;;;;27.76;22.68;101740.44;5074984;28;1096;-16
2022/12/21 07:22:48;;;;;;;;;;;;;;;27.94;22.01;101742.19;5075356;28;1006;-16
2022/12/21 07:25:14;;;;;;;;;;;;;;;28.07;22.16;101733.59;5057798;28;1115;-16
2022/12/21 07:27:39;;;;;;;;;;;;;;;28.05;21.88;101744.59;5074580;28;1311;-16
2022/12/21 07:30:06;;;;;;;;;;;;;;;28.11;22.08;101738.50;5074455;28;1168;-16
2022/12/21 07:32:31;;;;;;;;;;;;;;;28.47;22.17;101748.25;5062943;28;1760;-16
2022/12/21 07:34:57;;;;;;;;;;;;;;;28.26;22.25;101743.25;5074034;28;1140;-16
2022/12/21 07:37:22;;;;;;;;;;;;;;;28.03;22.69;101743.91;5071457;28;1903;-19
2022/12/21 07:39:47;;;;;;;;;;;;;;;28.18;22.68;101743.25;5064672;28;886;-19
2022/12/21 07:42:12;;;;;;;;;;;;;;;28.29;22.66;101740.25;5068424;28;1258;-19
2022/12/21 07:44:39;;;;;;;;;;;;;;;28.40;22.89;101736.38;5075590;28;1325;-19
2022/12/21 07:47:04;;;;;;;;;;;;;;;28.59;22.31;101735.19;5064367;28;1068;-19
2022/12/21 07:49:29;;;;;;;;;;;;;;;28.24;22.50;101743.44;5066427;28;1242;-20
2022/12/21 07:51:55;;;;;;;;;;;;;;;28.05;23.19;101741.03;5063415;28;1246;-19
2022/12/21 07:54:20;;;;;;;;;;;;;;;27.91;23.47;101745.22;5066623;28;1251;-20
2022/12/21 07:56:45;;;;;;;;;;;;;;;28.09;23.18;101721.59;5061577;28;1902;-19
2022/12/21 07:59:11;;;;;;;;;;;;;;;28.36;22.88;101722.34;5074075;28;1204;-19
2022/12/21 08:01:36;;;;;;;;;;;;;;;28.60;22.35;101725.22;5062409;28;1903;-19
2022/12/21 08:04:01;;;;;;;;;;;;;;;28.30;22.61;101723.00;5066019;28;1155;-20
2022/12/21 08:06:27;;;;;;;;;;;;;;;28.26;23.42;101721.63;5068208;28;1074;-19
2022/12/21 08:08:52;;;;;;;;;;;;;;;28.29;23.44;101715.03;5069850;28;1286;-20
2022/12/21 08:11:18;;;;;;;;;;;;;;;28.43;23.42;101710.84;5063436;28;1302;-20
2022/12/21 08:13:43;;;;;;;;;;;;;;;28.54;22.28;101704.25;5074743;28;1199;-19
2022/12/21 08:16:09;;;;;;;;;;;;;;;28.81;22.37;101700.31;5063736;28;1910;-19
2022/12/21 08:18:34;;;;;;;;;;;;;;;28.38;23.58;101697.00;5064448;28;1199;-19
2022/12/21 08:20:59;;;;;;;;;;;;;;;28.46;23.85;101692.41;5075517;28;1159;-19
2022/12/21 08:23:25;;;;;;;;;;;;;;;28.88;22.52;101692.38;5070959;28;1178;-19
2022/12/21 08:25:50;;;;;;;;;;;;;;;29.03;22.14;101697.13;5075329;28;1035;-19
2022/12/21 08:28:16;;;;;;;;;;;;;;;29.06;22.42;101683.22;5071893;28;1155;-20
2022/12/21 08:30:41;;;;;;;;;;;;;;;29.15;22.27;101698.44;5065668;28;1211;-20
2022/12/21 08:33:06;;;;;;;;;;;;;;;29.16;21.94;101696.56;5061912;28;1694;-19
2022/12/21 08:35:32;;;;;;;;;;;;;;;29.11;21.92;101691.69;5063933;28;1894;-19
2022/12/21 08:37:57;;;;;;;;;;;;;;;29.18;22.33;101695.38;5062840;28;1240;-20
2022/12/21 08:40:22;;;;;;;;;;;;;;;29.11;22.38;101688.97;5063050;28;1211;-20
2022/12/21 08:42:48;;;;;;;;;;;;;;;29.10;22.14;101687.28;5062622;28;1176;-19
2022/12/21 08:45:13;;;;;;;;;;;;;;;29.11;22.01;101688.97;5068704;28;1235;-20
2022/12/21 08:47:39;;;;;;;;;;;;;;;29.11;22.19;101675.44;5064750;28;1248;-20
2022/12/21 08:50:04;;;;;;;;;;;;;;;29.05;22.18;101666.13;5068410;28;1393;-20
2022/12/21 08:52:30;;;;;;;;;;;;;;;28.68;22.18;101681.06;5067796;28;1316;-20
2022/12/21 08:54:55;;;;;;;;;;;;;;;28.39;22.58;101667.06;5067356;28;1168;-20
2022/12/21 08:57:20;;;;;;;;;;;;;;;28.53;22.72;101673.63;5066669;28;1897;-20
2022/12/21 08:59:46;;;;;;;;;;;;;;;28.63;22.63;101669.91;5069841;28;1223;-20
2022/12/21 09:02:11;;;;;;;;;;;;;;;28.61;22.64;101656.56;5080845;28;1726;-19
2022/12/21 09:04:36;;;;;;;;;;;;;;;28.38;22.38;101648.28;5075675;28;1526;-20
2022/12/21 09:07:02;;;;;;;;;;;;;;;28.34;22.53;101639.66;5075238;28;1199;-20
2022/12/21 09:09:28;;;;;;;;;;;;;;;28.53;22.54;101641.16;5066228;28;1159;-20
2022/12/21 09:11:53;;;;;;;;;;;;;;;28.49;22.49;101645.22;5068674;28;1071;-20
2022/12/21 09:14:19;;;;;;;;;;;;;;;28.56;22.62;101642.69;5062932;28;1086;-20
2022/12/21 09:16:44;;;;;;;;;;;;;;;28.58;22.72;101633.38;5072268;28;1961;-20
2022/12/21 09:19:09;;;;;;;;;;;;;;;28.64;22.69;101629.13;5069232;28;1179;-20
2022/12/21 09:21:34;;;;;;;;;;;;;;;28.67;22.70;101614.41;5075142;28;1184;-19
2022/12/21 09:24:00;;;;;;;;;;;;;;;28.65;22.69;101611.88;5069113;28;1533;-20
2022/12/21 09:26:25;;;;;;;;;;;;;;;28.62;22.42;101612.22;5076084;28;1252;-20
2022/12/21 09:28:50;;;;;;;;;;;;;;;28.47;22.78;101609.38;5067309;28;1243;-20
2022/12/21 09:31:17;;;;;;;;;;;;;;;28.43;22.98;101599.88;5072512;28;1809;-20
2022/12/21 09:33:42;;;;;;;;;;;;;;;28.34;22.68;101599.06;5076322;28;997;-19
2022/12/21 09:36:07;;;;;;;;;;;;;;;28.29;22.94;101601.41;5074471;28;1889;-20
2022/12/21 09:38:33;;;;;;;;;;;;;;;28.17;23.22;101601.75;5058324;28;1091;-19
2022/12/21 09:41:04;;;;;;;;;;;;;;;28.15;23.24;101600.22;5074760;28;1040;-20
2022/12/21 09:43:30;;;;;;;;;;;;;;;28.18;23.16;101589.91;5073697;28;1266;-20
2022/12/21 09:46:00;;;;;;;;;;;;;;;28.08;23.35;101586.53;5068458;28;1076;-20
2022/12/21 09:48:34;;;;;;;;;;;;;;;28.05;23.35;101590.44;5054248;28;1224;-20
2022/12/21 09:51:09;;;;;;;;;;;;;;;27.20;25.15;101582.31;5040261;28;1072;-20
2022/12/21 09:53:48;;;;;;;;;;;;;;;27.61;24.94;101578.03;5057996;28;846;-19
2022/12/21 09:56:18;;;;;;;;;;;;;;;28.28;23.42;101572.69;5072258;28;1965;-20
2022/12/21 09:58:48;;;;;;;;;;;;;;;28.31;23.14;101565.03;5058542;28;1235;-19
2022/12/21 10:01:33;;;;;;;;;;;;;;;27.77;24.56;101560.16;5063425;28;1749;-20
2022/12/21 10:04:01;;;;;;;;;;;;;;;27.61;24.68;101554.53;5070829;28;1192;-20
2022/12/21 10:06:26;;;;;;;;;;;;;;;27.83;24.25;101556.78;5074739;28;992;-20
2022/12/21 10:09:04;;;;;;;;;;;;;;;28.40;23.03;101548.81;5077401;28;1191;-19
2022/12/21 10:11:35;;;;;;;;;;;;;;;28.75;22.84;101554.81;5076894;28;1149;-20
2022/12/21 10:14:09;;;;;;;;;;;;;;;28.50;24.13;101552.19;5076191;28;1215;-19
2022/12/21 10:16:40;;;;;;;;;;;;;;;28.69;23.09;101553.66;5057139;28;1905;-19
2022/12/21 10:19:14;;;;;;;;;;;;;;;28.76;22.92;101556.50;5059695;28;1474;-19
2022/12/21 10:21:47;;;;;;;;;;;;;;;28.22;24.43;101553.41;5059446;28;1267;-20
2022/12/21 10:24:19;;;;;;;;;;;;;;;28.47;23.95;101545.28;5042494;28;2139;-19
2022/12/21 10:26:45;;;;;;;;;;;;;;;28.95;22.99;101543.56;5058136;28;1161;-20
2022/12/21 10:29:11;;;;;;;;;;;;;;;28.42;24.31;101541.38;5059196;28;1035;-19
2022/12/21 10:31:38;;;;;;;;;;;;;;;28.52;24.16;101535.75;5072287;28;1857;-20
2022/12/21 10:34:23;;;;;;;;;;;;;;;28.87;22.57;101541.75;5046439;28;985;-20
2022/12/21 10:36:51;;;;;;;;;;;;;;;29.12;22.30;101532.66;5075746;28;1898;-21
2022/12/21 10:39:16;;;;;;;;;;;;;;;28.31;24.44;101535.28;5058968;28;1252;-20
2022/12/21 10:41:47;;;;;;;;;;;;;;;28.48;24.08;101529.84;5076722;28;1210;-20
2022/12/21 10:44:12;;;;;;;;;;;;;;;29.02;23.06;101522.06;5076701;28;1242;-20
2022/12/21 10:46:37;;;;;;;;;;;;;;;29.08;22.75;101522.19;5058770;28;1224;-21
2022/12/21 10:49:12;;;;;;;;;;;;;;;28.46;23.94;101511.09;5076287;28;1511;-20
2022/12/21 10:51:37;;;;;;;;;;;;;;;28.84;23.46;101520.44;5075953;28;1310;-19
2022/12/21 10:54:06;;;;;;;;;;;;;;;29.05;22.55;101519.00;5075677;28;1196;-20
2022/12/21 10:56:33;;;;;;;;;;;;;;;28.81;23.47;101518.09;5075824;28;1898;-21
2022/12/21 10:59:05;;;;;;;;;;;;;;;28.59;23.79;101513.22;5075571;28;1318;-20
2022/12/21 11:01:33;;;;;;;;;;;;;;;29.07;22.72;101514.25;5057327;28;1798;-20
2022/12/21 11:04:25;;;;;;;;;;;;;;;29.37;22.38;101508.13;5075896;28;1314;-20
2022/12/21 11:06:56;;;;;;;;;;;;;;;28.71;23.65;101505.59;5071500;28;1508;-20
2022/12/21 11:09:28;;;;;;;;;;;;;;;29.21;22.60;101505.34;5075605;28;1265;-20
2022/12/21 11:11:54;;;;;;;;;;;;;;;29.35;22.36;101500.19;5075493;28;1215;-19
2022/12/21 11:14:19;;;;;;;;;;;;;;;28.42;24.09;101498.06;5075891;28;1053;-20
2022/12/21 11:16:44;;;;;;;;;;;;;;;28.58;23.91;101505.28;5074982;28;1913;-20
2022/12/21 11:19:19;;;;;;;;;;;;;;;29.22;22.66;101503.50;5074112;28;1187;-20
2022/12/21 11:21:48;;;;;;;;;;;;;;;29.15;22.69;101497.09;5056688;28;1149;-20
2022/12/21 11:24:13;;;;;;;;;;;;;;;28.62;23.59;101492.25;5075317;28;1298;-20
2022/12/21 11:26:41;;;;;;;;;;;;;;;28.66;21.75;101482.78;5076273;28;1262;-21
2022/12/21 11:29:07;;;;;;;;;;;;;;;28.41;17.96;101482.88;5074441;28;1282;-20
2022/12/21 11:31:33;;;;;;;;;;;;;;;28.11;17.36;101489.66;5073686;28;1843;-20
2022/12/21 11:33:58;;;;;;;;;;;;;;;27.63;16.93;101482.25;5074263;28;1395;-20
2022/12/21 11:36:23;;;;;;;;;;;;;;;27.49;16.69;101480.22;5074394;28;1971;-20
2022/12/21 11:38:48;;;;;;;;;;;;;;;27.51;16.36;101479.03;5057121;28;1274;-20
2022/12/21 11:41:25;;;;;;;;;;;;;;;27.37;16.73;101471.59;5056504;28;1318;-20
2022/12/21 11:43:50;;;;;;;;;;;;;;;26.97;16.51;101477.56;5074173;28;1257;-20
2022/12/21 11:46:17;;;;;;;;;;;;;;;27.00;16.16;101468.28;5075218;28;1332;-20
2022/12/21 11:48:43;;;;;;;;;;;;;;;26.64;17.87;101463.97;5057286;28;1401;-20
2022/12/21 11:51:17;;;;;;;;;;;;;;;26.78;17.01;101468.72;5074729;28;1250;-21
2022/12/21 11:53:45;;;;;;;;;;;;;;;26.74;16.77;101459.25;5075263;28;1286;-20
2022/12/21 11:56:13;;;;;;;;;;;;;;;26.70;16.79;101449.81;5073197;28;1911;-19
2022/12/21 11:58:51;;;;;;;;;;;;;;;26.54;16.81;101450.59;5074657;28;1266;-20
2022/12/21 12:01:20;;;;;;;;;;;;;;;26.77;17.13;101447.28;5074191;28;2310;-20
2022/12/21 12:03:49;;;;;;;;;;;;;;;26.79;17.31;101445.28;5073352;28;1231;-20
2022/12/21 12:06:32;;;;;;;;;;;;;;;26.71;16.73;101446.09;5056982;28;1115;-20
2022/12/21 12:09:07;;;;;;;;;;;;;;;26.17;16.34;101448.00;5062431;28;1023;-20
2022/12/21 12:11:32;;;;;;;;;;;;;;;26.24;17.09;101441.97;5074918;28;1008;-19
2022/12/21 12:13:57;;;;;;;;;;;;;;;26.53;18.22;101436.25;5075178;28;1035;-20
2022/12/21 12:16:26;;;;;;;;;;;;;;;26.48;19.98;101437.72;5075315;28;1983;-20
2022/12/21 12:18:56;;;;;;;;;;;;;;;26.39;20.56;101435.00;5075538;28;1333;-20
2022/12/21 12:21:29;;;;;;;;;;;;;;;26.47;21.62;101426.13;5057853;28;1039;-20
2022/12/21 12:24:02;;;;;;;;;;;;;;;26.41;21.88;101421.34;5057393;28;1040;-19
2022/12/21 12:26:27;;;;;;;;;;;;;;;26.34;22.20;101418.44;5075653;28;985;-20
2022/12/21 12:29:11;;;;;;;;;;;;;;;26.46;21.81;101424.41;5075056;28;1462;-20
2022/12/21 12:31:41;;;;;;;;;;;;;;;26.32;22.23;101423.16;5075261;28;1961;-20
2022/12/21 12:34:09;;;;;;;;;;;;;;;26.22;22.52;101417.88;5062385;28;1447;-20
2022/12/21 12:36:38;;;;;;;;;;;;;;;26.14;22.75;101412.44;5079664;28;1890;-20
2022/12/21 12:39:06;;;;;;;;;;;;;;;26.42;22.52;101406.88;5079609;28;1227;-20
2022/12/21 12:41:32;;;;;;;;;;;;;;;26.24;22.54;101404.22;5078873;28;1532;-19
2022/12/21 12:44:00;;;;;;;;;;;;;;;26.10;22.85;101405.66;5079066;28;1316;-20
2022/12/21 12:46:45;;;;;;;;;;;;;;;26.15;23.20;101411.41;5079386;28;1050;-20
2022/12/21 12:49:13;;;;;;;;;;;;;;;25.96;23.42;101413.31;5061151;28;1174;-20
2022/12/21 12:51:49;;;;;;;;;;;;;;;26.16;23.10;101415.78;5077864;28;1119;-20
2022/12/21 12:54:20;;;;;;;;;;;;;;;26.04;23.36;101415.25;5066161;28;1103;-20
2022/12/21 12:57:05;;;;;;;;;;;;;;;26.22;23.42;101414.31;5065468;28;1961;-20
2022/12/21 12:59:32;;;;;;;;;;;;;;;26.43;23.58;101415.78;5078499;28;1274;-20
2022/12/21 13:02:11;;;;;;;;;;;;;;;26.05;24.24;101414.22;5060570;28;2246;-20
2022/12/21 13:04:49;;;;;;;;;;;;;;;26.07;24.98;101405.97;5059118;28;1365;-21
2022/12/21 13:07:18;;;;;;;;;;;;;;;25.76;25.12;101418.94;5078907;28;877;-19
2022/12/21 13:09:53;;;;;;;;;;;;;;;26.28;24.48;101416.38;5078349;28;1107;-19